sensor_id;sensor_type;location;lat;lon;timestamp;pressure;altitude;pressure_sealevel;temperature;humidity
78144;BME280;67394;52.522;13.622;2023-08-01T00:00:33;99560.38;;;17.72;93.03
78144;BME280;67394;52.522;13.622;2023-08-01T00:03:00;99551.84;;;17.70;92.44
78144;BME280;67394;52.522;13.622;2023-08-01T00:05:26;99556.34;;;17.67;93.29
78144;BME280;67394;52.522;13.622;2023-08-01T00:07:53;99553.25;;;17.59;94.07
78144;BME280;67394;52.522;13.622;2023-08-01T00:10:20;99544.78;;;17.55;95.17
78144;BME280;67394;52.522;13.622;2023-08-01T00:12:46;99545.88;;;17.49;96.40
78144;BME280;67394;52.522;13.622;2023-08-01T00:15:13;99542.75;;;17.43;97.63
78144;BME280;67394;52.522;13.622;2023-08-01T00:17:40;99536.72;;;17.42;97.28
78144;BME280;67394;52.522;13.622;2023-08-01T00:20:07;99531.13;;;17.33;98.46
78144;BME280;67394;52.522;13.622;2023-08-01T00:22:34;99525.09;;;17.32;98.78
78144;BME280;67394;52.522;13.622;2023-08-01T00:25:00;99523.72;;;17.25;100.00
78144;BME280;67394;52.522;13.622;2023-08-01T00:27:27;99525.41;;;17.26;100.00
78144;BME280;67394;52.522;13.622;2023-08-01T00:29:54;99518.03;;;17.17;100.00
78144;BME280;67394;52.522;13.622;2023-08-01T00:32:21;99515.78;;;17.09;100.00
78144;BME280;67394;52.522;13.622;2023-08-01T00:34:50;99519.59;;;17.02;100.00
78144;BME280;67394;52.522;13.622;2023-08-01T00:37:16;99508.66;;;16.96;100.00
78144;BME280;67394;52.522;13.622;2023-08-01T00:39:43;99503.34;;;16.99;100.00
78144;BME280;67394;52.522;13.622;2023-08-01T00:42:10;99501.09;;;16.91;100.00
78144;BME280;67394;52.522;13.622;2023-08-01T00:44:36;99501.53;;;16.82;100.00
78144;BME280;67394;52.522;13.622;2023-08-01T00:47:03;99503.47;;;16.77;100.00
78144;BME280;67394;52.522;13.622;2023-08-01T00:49:31;99488.00;;;16.75;100.00
78144;BME280;67394;52.522;13.622;2023-08-01T00:52:00;99482.19;;;16.70;100.00
78144;BME280;67394;52.522;13.622;2023-08-01T00:54:27;99472.88;;;16.66;100.00
78144;BME280;67394;52.522;13.622;2023-08-01T00:56:53;99473.84;;;16.64;100.00
78144;BME280;67394;52.522;13.622;2023-08-01T00:59:20;99465.38;;;16.60;100.00
78144;BME280;67394;52.522;13.622;2023-08-01T01:01:46;99462.75;;;16.62;100.00
78144;BME280;67394;52.522;13.622;2023-08-01T01:04:13;99466.91;;;16.64;100.00
78144;BME280;67394;52.522;13.622;2023-08-01T01:07:09;99462.00;;;16.58;100.00
78144;BME280;67394;52.522;13.622;2023-08-01T01:09:34;99454.38;;;16.55;100.00
78144;BME280;67394;52.522;13.622;2023-08-01T01:12:00;99456.19;;;16.53;100.00
78144;BME280;67394;52.522;13.622;2023-08-01T01:14:28;99450.25;;;16.51;100.00
78144;BME280;67394;52.522;13.622;2023-08-01T01:16:55;99451.00;;;16.53;100.00
78144;BME280;67394;52.522;13.622;2023-08-01T01:19:22;99449.34;;;16.52;100.00
78144;BME280;67394;52.522;13.622;2023-08-01T01:21:49;99448.50;;;16.52;100.00
78144;BME280;67394;52.522;13.622;2023-08-01T01:24:17;99445.19;;;16.48;100.00
78144;BME280;67394;52.522;13.622;2023-08-01T01:26:46;99439.97;;;16.50;100.00
78144;BME280;67394;52.522;13.622;2023-08-01T01:29:14;99431.50;;;16.46;100.00
78144;BME280;67394;52.522;13.622;2023-08-01T01:31:41;99411.63;;;16.46;100.00
78144;BME280;67394;52.522;13.622;2023-08-01T01:34:08;99401.34;;;16.45;100.00
78144;BME280;67394;52.522;13.622;2023-08-01T01:36:35;99383.25;;;16.45;100.00
78144;BME280;67394;52.522;13.622;2023-08-01T01:39:02;99389.31;;;16.44;100.00
78144;BME280;67394;52.522;13.622;2023-08-01T01:41:28;99385.91;;;16.43;100.00
78144;BME280;67394;52.522;13.622;2023-08-01T01:43:55;99379.88;;;16.43;100.00
78144;BME280;67394;52.522;13.622;2023-08-01T01:46:21;99378.97;;;16.44;100.00
78144;BME280;67394;52.522;13.622;2023-08-01T01:48:48;99378.97;;;16.44;100.00
78144;BME280;67394;52.522;13.622;2023-08-01T01:51:15;99382.34;;;16.46;100.00
78144;BME280;67394;52.522;13.622;2023-08-01T01:53:41;99378.06;;;16.45;100.00
78144;BME280;67394;52.522;13.622;2023-08-01T01:56:09;99377.16;;;16.46;100.00
78144;BME280;67394;52.522;13.622;2023-08-01T01:58:35;99379.97;;;16.41;100.00
78144;BME280;67394;52.522;13.622;2023-08-01T02:01:02;99378.06;;;16.45;100.00
78144;BME280;67394;52.522;13.622;2023-08-01T02:03:28;99376.47;;;16.42;100.00
78144;BME280;67394;52.522;13.622;2023-08-01T02:05:55;99367.88;;;16.42;100.00
78144;BME280;67394;52.522;13.622;2023-08-01T02:08:21;99355.09;;;16.39;100.00
78144;BME280;67394;52.522;13.622;2023-08-01T02:10:48;99344.75;;;16.39;100.00
78144;BME280;67394;52.522;13.622;2023-08-01T02:13:14;99338.50;;;16.43;100.00
78144;BME280;67394;52.522;13.622;2023-08-01T02:15:41;99334.09;;;16.45;100.00
78144;BME280;67394;52.522;13.622;2023-08-01T02:18:08;99330.00;;;16.41;100.00
78144;BME280;67394;52.522;13.622;2023-08-01T02:20:34;99328.25;;;16.41;100.00
78144;BME280;67394;52.522;13.622;2023-08-01T02:23:01;99327.41;;;16.41;100.00
78144;BME280;67394;52.522;13.622;2023-08-01T02:25:27;99323.91;;;16.42;100.00
78144;BME280;67394;52.522;13.622;2023-08-01T02:27:54;99320.63;;;16.38;100.00
78144;BME280;67394;52.522;13.622;2023-08-01T02:30:20;99320.69;;;16.37;100.00
78144;BME280;67394;52.522;13.622;2023-08-01T02:32:46;99309.44;;;16.38;100.00
78144;BME280;67394;52.522;13.622;2023-08-01T02:35:13;99308.53;;;16.39;100.00
78144;BME280;67394;52.522;13.622;2023-08-01T02:37:40;99304.19;;;16.39;100.00
78144;BME280;67394;52.522;13.622;2023-08-01T02:40:08;99305.94;;;16.39;100.00
78144;BME280;67394;52.522;13.622;2023-08-01T02:42:35;99307.56;;;16.41;100.00
78144;BME280;67394;52.522;13.622;2023-08-01T02:45:01;99300.53;;;16.43;100.00
78144;BME280;67394;52.522;13.622;2023-08-01T02:47:28;99303.28;;;16.40;100.00
78144;BME280;67394;52.522;13.622;2023-08-01T02:49:54;99304.13;;;16.41;100.00
78144;BME280;67394;52.522;13.622;2023-08-01T02:52:21;99303.22;;;16.42;100.00
78144;BME280;67394;52.522;13.622;2023-08-01T02:54:47;99299.03;;;16.39;100.00
78144;BME280;67394;52.522;13.622;2023-08-01T02:57:14;99293.00;;;16.39;100.00
78144;BME280;67394;52.522;13.622;2023-08-01T02:59:40;99286.88;;;16.41;100.00
78144;BME280;67394;52.522;13.622;2023-08-01T03:02:07;99292.09;;;16.40;100.00
78144;BME280;67394;52.522;13.622;2023-08-01T03:04:33;99292.03;;;16.41;100.00
78144;BME280;67394;52.522;13.622;2023-08-01T03:07:12;99279.31;;;16.37;100.00
78144;BME280;67394;52.522;13.622;2023-08-01T03:09:38;99273.84;;;16.43;100.00
78144;BME280;67394;52.522;13.622;2023-08-01T03:12:05;99265.16;;;16.44;100.00
78144;BME280;67394;52.522;13.622;2023-08-01T03:14:32;99268.59;;;16.44;100.00
78144;BME280;67394;52.522;13.622;2023-08-01T03:16:58;99255.00;;;16.41;100.00
78144;BME280;67394;52.522;13.622;2023-08-01T03:19:24;99267.75;;;16.44;100.00
78144;BME280;67394;52.522;13.622;2023-08-01T03:21:52;99255.00;;;16.41;100.00
78144;BME280;67394;52.522;13.622;2023-08-01T03:24:19;99260.00;;;16.44;100.00
78144;BME280;67394;52.522;13.622;2023-08-01T03:26:45;99256.38;;;16.48;100.00
78144;BME280;67394;52.522;13.622;2023-08-01T03:29:12;99253.91;;;16.45;100.00
78144;BME280;67394;52.522;13.622;2023-08-01T03:31:38;99247.06;;;16.44;100.00
78144;BME280;67394;52.522;13.622;2023-08-01T03:34:05;99250.47;;;16.44;100.00
78144;BME280;67394;52.522;13.622;2023-08-01T03:36:31;99247.97;;;16.43;100.00
78144;BME280;67394;52.522;13.622;2023-08-01T03:38:59;99244.47;;;16.44;100.00
78144;BME280;67394;52.522;13.622;2023-08-01T03:41:26;99233.38;;;16.42;100.00
78144;BME280;67394;52.522;13.622;2023-08-01T03:43:53;99234.97;;;16.44;100.00
78144;BME280;67394;52.522;13.622;2023-08-01T03:46:19;99242.66;;;16.46;100.00
78144;BME280;67394;52.522;13.622;2023-08-01T03:48:46;99237.47;;;16.46;100.00
78144;BME280;67394;52.522;13.622;2023-08-01T03:51:12;99234.13;;;16.44;100.00
78144;BME280;67394;52.522;13.622;2023-08-01T03:53:38;99233.91;;;16.48;100.00
78144;BME280;67394;52.522;13.622;2023-08-01T03:56:05;99233.16;;;16.46;100.00
78144;BME280;67394;52.522;13.622;2023-08-01T03:58:31;99231.41;;;16.47;100.00
78144;BME280;67394;52.522;13.622;2023-08-01T04:00:58;99228.03;;;16.45;100.00
78144;BME280;67394;52.522;13.622;2023-08-01T04:03:25;99222.66;;;16.50;100.00
78144;BME280;67394;52.522;13.622;2023-08-01T04:05:52;99219.31;;;16.47;100.00
78144;BME280;67394;52.522;13.622;2023-08-01T04:08:18;99223.63;;;16.47;100.00
78144;BME280;67394;52.522;13.622;2023-08-01T04:10:45;99225.31;;;16.48;100.00
78144;BME280;67394;52.522;13.622;2023-08-01T04:13:11;99225.31;;;16.48;100.00
78144;BME280;67394;52.522;13.622;2023-08-01T04:15:38;99214.91;;;16.50;100.00
78144;BME280;67394;52.522;13.622;2023-08-01T04:18:05;99224.28;;;16.52;100.00
78144;BME280;67394;52.522;13.622;2023-08-01T04:20:31;99220.91;;;16.50;100.00
78144;BME280;67394;52.522;13.622;2023-08-01T04:22:58;99214.84;;;16.51;100.00
78144;BME280;67394;52.522;13.622;2023-08-01T04:25:26;99216.97;;;16.60;100.00
78144;BME280;67394;52.522;13.622;2023-08-01T04:27:53;99217.03;;;16.59;100.00
78144;BME280;67394;52.522;13.622;2023-08-01T04:30:20;99217.03;;;16.59;100.00
78144;BME280;67394;52.522;13.622;2023-08-01T04:32:46;99215.94;;;16.64;100.00
78144;BME280;67394;52.522;13.622;2023-08-01T04:35:13;99210.75;;;16.64;100.00
78144;BME280;67394;52.522;13.622;2023-08-01T04:37:39;99216.63;;;16.68;100.00
78144;BME280;67394;52.522;13.622;2023-08-01T04:40:06;99214.88;;;16.68;100.00
78144;BME280;67394;52.522;13.622;2023-08-01T04:42:33;99201.63;;;16.74;100.00
78144;BME280;67394;52.522;13.622;2023-08-01T04:45:00;99199.16;;;16.73;100.00
78144;BME280;67394;52.522;13.622;2023-08-01T04:47:26;99201.50;;;16.77;100.00
78144;BME280;67394;52.522;13.622;2023-08-01T04:49:53;99199.16;;;16.73;100.00
78144;BME280;67394;52.522;13.622;2023-08-01T04:52:19;99193.13;;;16.72;100.00
78144;BME280;67394;52.522;13.622;2023-08-01T04:54:46;99189.63;;;16.73;100.00
78144;BME280;67394;52.522;13.622;2023-08-01T04:57:12;99186.59;;;16.82;100.00
78144;BME280;67394;52.522;13.622;2023-08-01T04:59:39;99180.66;;;16.80;100.00
78144;BME280;67394;52.522;13.622;2023-08-01T05:02:05;99177.28;;;16.78;100.00
78144;BME280;67394;52.522;13.622;2023-08-01T05:04:32;99176.97;;;16.84;100.00
78144;BME280;67394;52.522;13.622;2023-08-01T05:06:58;99174.47;;;16.83;100.00
78144;BME280;67394;52.522;13.622;2023-08-01T05:09:25;99166.78;;;16.81;100.00
78144;BME280;67394;52.522;13.622;2023-08-01T05:11:52;99166.78;;;16.81;100.00
78144;BME280;67394;52.522;13.622;2023-08-01T05:14:18;99160.63;;;16.84;100.00
78144;BME280;67394;52.522;13.622;2023-08-01T05:16:45;99162.53;;;16.80;100.00
78144;BME280;67394;52.522;13.622;2023-08-01T05:19:12;99163.13;;;16.86;100.00
78144;BME280;67394;52.522;13.622;2023-08-01T05:21:38;99153.66;;;16.84;100.00
78144;BME280;67394;52.522;13.622;2023-08-01T05:24:05;99151.91;;;16.85;100.00
78144;BME280;67394;52.522;13.622;2023-08-01T05:26:31;99151.19;;;16.83;100.00
78144;BME280;67394;52.522;13.622;2023-08-01T05:28:58;99153.66;;;16.84;100.00
78144;BME280;67394;52.522;13.622;2023-08-01T05:31:24;99140.44;;;16.91;100.00
78144;BME280;67394;52.522;13.622;2023-08-01T05:33:51;99144.84;;;16.89;100.00
78144;BME280;67394;52.522;13.622;2023-08-01T05:36:17;99136.25;;;16.88;100.00
78144;BME280;67394;52.522;13.622;2023-08-01T05:38:44;99135.41;;;16.88;100.00
78144;BME280;67394;52.522;13.622;2023-08-01T05:41:11;99146.59;;;16.88;100.00
78144;BME280;67394;52.522;13.622;2023-08-01T05:43:37;99133.25;;;16.96;100.00
78144;BME280;67394;52.522;13.622;2023-08-01T05:46:04;99137.72;;;16.94;100.00
78144;BME280;67394;52.522;13.622;2023-08-01T05:48:31;99134.94;;;16.97;100.00
78144;BME280;67394;52.522;13.622;2023-08-01T05:50:57;99125.50;;;16.96;100.00
78144;BME280;67394;52.522;13.622;2023-08-01T05:53:24;99127.34;;;16.94;100.00
78144;BME280;67394;52.522;13.622;2023-08-01T05:55:50;99121.09;;;16.98;100.00
78144;BME280;67394;52.522;13.622;2023-08-01T05:58:17;99114.06;;;17.00;100.00
78144;BME280;67394;52.522;13.622;2023-08-01T06:00:43;99110.66;;;16.99;100.00
78144;BME280;67394;52.522;13.622;2023-08-01T06:03:10;99109.81;;;16.99;100.00
78144;BME280;67394;52.522;13.622;2023-08-01T06:05:37;99116.59;;;17.01;100.00
78144;BME280;67394;52.522;13.622;2023-08-01T06:08:05;99113.94;;;17.03;100.00
78144;BME280;67394;52.522;13.622;2023-08-01T06:10:32;99113.09;;;17.02;100.00
78144;BME280;67394;52.522;13.622;2023-08-01T06:12:58;99116.59;;;17.01;100.00
78144;BME280;67394;52.522;13.622;2023-08-01T06:15:25;99116.59;;;17.01;100.00
78144;BME280;67394;52.522;13.622;2023-08-01T06:17:52;99123.53;;;17.01;100.00
78144;BME280;67394;52.522;13.622;2023-08-01T06:20:19;99118.84;;;17.07;100.00
78144;BME280;67394;52.522;13.622;2023-08-01T06:22:45;99128.84;;;17.15;100.00
78144;BME280;67394;52.522;13.622;2023-08-01T06:25:12;99123.66;;;17.15;100.00
78144;BME280;67394;52.522;13.622;2023-08-01T06:27:38;99126.25;;;17.15;100.00
78144;BME280;67394;52.522;13.622;2023-08-01T06:30:05;99129.56;;;17.17;100.00
78144;BME280;67394;52.522;13.622;2023-08-01T06:32:32;99112.06;;;17.22;100.00
78144;BME280;67394;52.522;13.622;2023-08-01T06:34:59;99107.22;;;17.16;100.00
78144;BME280;67394;52.522;13.622;2023-08-01T06:37:26;99119.13;;;17.18;100.00
78144;BME280;67394;52.522;13.622;2023-08-01T06:39:54;99110.44;;;17.19;100.00
78144;BME280;67394;52.522;13.622;2023-08-01T06:42:21;99104.28;;;17.22;100.00
78144;BME280;67394;52.522;13.622;2023-08-01T06:44:47;99106.72;;;17.25;100.00
78144;BME280;67394;52.522;13.622;2023-08-01T06:47:14;99105.97;;;17.23;100.00
78144;BME280;67394;52.522;13.622;2023-08-01T06:49:40;99108.53;;;17.23;100.00
78144;BME280;67394;52.522;13.622;2023-08-01T06:52:07;99113.66;;;17.25;100.00
78144;BME280;67394;52.522;13.622;2023-08-01T06:54:34;99110.72;;;17.31;100.00
78144;BME280;67394;52.522;13.622;2023-08-01T06:57:06;99115.97;;;17.29;100.00
78144;BME280;67394;52.522;13.622;2023-08-01T06:59:33;99110.16;;;17.26;100.00
78144;BME280;67394;52.522;13.622;2023-08-01T07:02:00;99110.03;;;17.27;100.00
78144;BME280;67394;52.522;13.622;2023-08-01T07:04:26;99105.81;;;17.26;100.00
78144;BME280;67394;52.522;13.622;2023-08-01T07:06:53;99106.53;;;17.28;100.00
78144;BME280;67394;52.522;13.622;2023-08-01T07:09:19;99106.72;;;17.25;100.00
78144;BME280;67394;52.522;13.622;2023-08-01T07:11:46;99109.47;;;17.22;100.00
78144;BME280;67394;52.522;13.622;2023-08-01T07:14:12;99111.22;;;17.22;100.00
78144;BME280;67394;52.522;13.622;2023-08-01T07:16:39;99105.03;;;17.24;100.00
78144;BME280;67394;52.522;13.622;2023-08-01T07:19:05;99109.31;;;17.25;100.00
78144;BME280;67394;52.522;13.622;2023-08-01T07:21:32;99112.63;;;17.27;100.00
78144;BME280;67394;52.522;13.622;2023-08-01T07:23:58;99105.81;;;17.26;100.00
78144;BME280;67394;52.522;13.622;2023-08-01T07:26:25;99103.94;;;17.28;100.00
78144;BME280;67394;52.522;13.622;2023-08-01T07:28:51;99107.16;;;17.33;100.00
78144;BME280;67394;52.522;13.622;2023-08-01T07:31:18;99106.16;;;17.36;100.00
78144;BME280;67394;52.522;13.622;2023-08-01T07:33:44;99099.94;;;17.38;100.00
78144;BME280;67394;52.522;13.622;2023-08-01T07:36:11;99096.97;;;17.46;100.00
78144;BME280;67394;52.522;13.622;2023-08-01T07:38:37;99095.72;;;17.53;100.00
78144;BME280;67394;52.522;13.622;2023-08-01T07:41:05;99091.03;;;17.60;100.00
78144;BME280;67394;52.522;13.622;2023-08-01T07:43:32;99088.00;;;17.69;100.00
78144;BME280;67394;52.522;13.622;2023-08-01T07:45:59;99081.53;;;17.76;100.00
78144;BME280;67394;52.522;13.622;2023-08-01T07:48:26;99075.16;;;17.81;100.00
78144;BME280;67394;52.522;13.622;2023-08-01T07:50:54;99077.25;;;17.90;100.00
78144;BME280;67394;52.522;13.622;2023-08-01T07:53:20;99076.84;;;17.98;100.00
78144;BME280;67394;52.522;13.622;2023-08-01T07:55:47;99079.44;;;17.98;100.00
78144;BME280;67394;52.522;13.622;2023-08-01T07:58:13;99080.25;;;17.99;100.00
78144;BME280;67394;52.522;13.622;2023-08-01T08:00:40;99080.00;;;18.03;100.00
78144;BME280;67394;52.522;13.622;2023-08-01T08:03:07;99085.19;;;18.03;100.00
78144;BME280;67394;52.522;13.622;2023-08-01T08:05:34;99076.31;;;18.07;100.00
78144;BME280;67394;52.522;13.622;2023-08-01T08:08:01;99069.19;;;18.11;100.00
78144;BME280;67394;52.522;13.622;2023-08-01T08:10:27;99063.41;;;18.21;100.00
78144;BME280;67394;52.522;13.622;2023-08-01T08:12:54;99076.00;;;18.27;100.00
78144;BME280;67394;52.522;13.622;2023-08-01T08:15:20;99058.06;;;18.39;100.00
78144;BME280;67394;52.522;13.622;2023-08-01T08:17:47;99056.88;;;18.44;100.00
78144;BME280;67394;52.522;13.622;2023-08-01T08:20:14;99048.81;;;18.49;100.00
78144;BME280;67394;52.522;13.622;2023-08-01T08:22:40;99051.50;;;18.47;100.00
78144;BME280;67394;52.522;13.622;2023-08-01T08:25:07;99045.72;;;18.58;100.00
78144;BME280;67394;52.522;13.622;2023-08-01T08:27:33;99046.84;;;18.68;100.00
78144;BME280;67394;52.522;13.622;2023-08-01T08:30:00;99053.22;;;18.77;100.00
78144;BME280;67394;52.522;13.622;2023-08-01T08:32:27;99055.56;;;18.81;100.00
78144;BME280;67394;52.522;13.622;2023-08-01T08:34:53;99070.13;;;18.84;100.00
78144;BME280;67394;52.522;13.622;2023-08-01T08:37:20;99071.69;;;18.86;100.00
78144;BME280;67394;52.522;13.622;2023-08-01T08:39:47;99074.13;;;18.89;99.05
78144;BME280;67394;52.522;13.622;2023-08-01T08:42:13;99070.34;;;18.95;98.88
78144;BME280;67394;52.522;13.622;2023-08-01T08:44:43;99070.59;;;19.05;98.68
78144;BME280;67394;52.522;13.622;2023-08-01T08:47:11;99073.66;;;19.11;98.59
78144;BME280;67394;52.522;13.622;2023-08-01T08:49:39;99066.69;;;19.26;98.44
78144;BME280;67394;52.522;13.622;2023-08-01T08:52:07;99062.94;;;19.44;97.92
78144;BME280;67394;52.522;13.622;2023-08-01T08:54:35;99062.50;;;19.52;97.39
78144;BME280;67394;52.522;13.622;2023-08-01T08:57:05;99060.47;;;19.57;96.22
78144;BME280;67394;52.522;13.622;2023-08-01T08:59:32;99065.00;;;19.53;94.70
78144;BME280;67394;52.522;13.622;2023-08-01T09:01:59;99071.88;;;19.54;95.45
78144;BME280;67394;52.522;13.622;2023-08-01T09:04:26;99064.25;;;19.51;93.82
78144;BME280;67394;52.522;13.622;2023-08-01T09:06:58;99063.91;;;19.57;94.85
78144;BME280;67394;52.522;13.622;2023-08-01T09:09:27;99061.72;;;19.64;93.16
78144;BME280;67394;52.522;13.622;2023-08-01T09:11:54;99060.22;;;19.74;93.52
78144;BME280;67394;52.522;13.622;2023-08-01T09:14:20;99061.59;;;19.80;93.00
78144;BME280;67394;52.522;13.622;2023-08-01T09:16:47;99066.06;;;19.78;93.19
78144;BME280;67394;52.522;13.622;2023-08-01T09:19:19;99070.13;;;19.82;92.36
78144;BME280;67394;52.522;13.622;2023-08-01T09:21:46;99064.44;;;19.89;92.08
78144;BME280;67394;52.522;13.622;2023-08-01T09:24:17;99056.66;;;19.89;91.14
78144;BME280;67394;52.522;13.622;2023-08-01T09:26:45;99054.19;;;20.00;90.42
78144;BME280;67394;52.522;13.622;2023-08-01T09:29:13;99044.97;;;20.22;91.23
78144;BME280;67394;52.522;13.622;2023-08-01T09:31:40;99038.47;;;20.41;89.05
78144;BME280;67394;52.522;13.622;2023-08-01T09:34:22;99024.94;;;20.62;88.12
78144;BME280;67394;52.522;13.622;2023-08-01T09:36:50;99023.09;;;20.64;85.37
78144;BME280;67394;52.522;13.622;2023-08-01T09:39:19;99031.41;;;20.94;84.90
78144;BME280;67394;52.522;13.622;2023-08-01T09:42:08;99030.75;;;21.16;84.12
78144;BME280;67394;52.522;13.622;2023-08-01T09:44:34;99024.41;;;21.07;82.07
78144;BME280;67394;52.522;13.622;2023-08-01T09:47:05;99021.72;;;20.96;81.86
78144;BME280;67394;52.522;13.622;2023-08-01T09:49:31;99026.19;;;20.94;82.05
78144;BME280;67394;52.522;13.622;2023-08-01T09:51:58;99025.25;;;20.95;82.75
78144;BME280;67394;52.522;13.622;2023-08-01T09:54:25;99021.56;;;20.98;81.60
78144;BME280;67394;52.522;13.622;2023-08-01T09:56:53;99029.84;;;20.79;76.22
78144;BME280;67394;52.522;13.622;2023-08-01T09:59:25;99035.44;;;20.48;77.97
78144;BME280;67394;52.522;13.622;2023-08-01T10:01:53;99044.25;;;20.20;77.94
78144;BME280;67394;52.522;13.622;2023-08-01T10:04:23;99043.69;;;20.15;79.55
78144;BME280;67394;52.522;13.622;2023-08-01T10:06:56;99043.41;;;20.19;80.92
78144;BME280;67394;52.522;13.622;2023-08-01T10:09:23;99049.88;;;20.26;79.43
78144;BME280;67394;52.522;13.622;2023-08-01T10:11:51;99046.97;;;20.31;80.49
78144;BME280;67394;52.522;13.622;2023-08-01T10:14:21;99043.97;;;20.37;78.96
78144;BME280;67394;52.522;13.622;2023-08-01T10:16:49;99048.69;;;20.44;80.09
78144;BME280;67394;52.522;13.622;2023-08-01T10:19:17;99045.56;;;20.39;79.08
78144;BME280;67394;52.522;13.622;2023-08-01T10:21:47;99041.69;;;20.45;77.98
78144;BME280;67394;52.522;13.622;2023-08-01T10:24:14;99036.50;;;20.58;79.98
78144;BME280;67394;52.522;13.622;2023-08-01T10:26:44;99035.16;;;20.65;80.05
78144;BME280;67394;52.522;13.622;2023-08-01T10:29:11;99039.94;;;20.58;78.12
78144;BME280;67394;52.522;13.622;2023-08-01T10:31:38;99030.78;;;20.65;78.83
78144;BME280;67394;52.522;13.622;2023-08-01T10:34:11;99032.88;;;20.60;79.70
78144;BME280;67394;52.522;13.622;2023-08-01T10:36:41;99023.47;;;20.45;79.89
78144;BME280;67394;52.522;13.622;2023-08-01T10:39:08;99024.47;;;20.30;79.80
78144;BME280;67394;52.522;13.622;2023-08-01T10:41:35;99026.03;;;20.20;80.34
78144;BME280;67394;52.522;13.622;2023-08-01T10:44:11;99024.47;;;20.30;81.56
78144;BME280;67394;52.522;13.622;2023-08-01T10:49:37;99028.47;;;20.35;79.42
78144;BME280;67394;52.522;13.622;2023-08-01T10:52:16;99031.97;;;20.22;80.12
78144;BME280;67394;52.522;13.622;2023-08-01T10:54:42;99035.59;;;20.19;80.66
78144;BME280;67394;52.522;13.622;2023-08-01T10:57:15;99026.94;;;20.06;81.39
78144;BME280;67394;52.522;13.622;2023-08-01T10:59:42;99028.88;;;20.02;81.45
78144;BME280;67394;52.522;13.622;2023-08-01T11:02:09;99022.88;;;20.02;81.85
78144;BME280;67394;52.522;13.622;2023-08-01T11:04:36;99022.31;;;19.97;81.80
78144;BME280;67394;52.522;13.622;2023-08-01T11:07:04;99058.78;;;19.83;85.36
78144;BME280;67394;52.522;13.622;2023-08-01T11:09:31;99076.91;;;19.15;91.11
78144;BME280;67394;52.522;13.622;2023-08-01T11:11:58;99078.91;;;18.67;93.75
78144;BME280;67394;52.522;13.622;2023-08-01T11:14:26;99076.44;;;18.50;98.75
78144;BME280;67394;52.522;13.622;2023-08-01T11:16:55;99090.56;;;18.30;100.00
78144;BME280;67394;52.522;13.622;2023-08-01T11:19:25;99089.59;;;18.01;100.00
78144;BME280;67394;52.522;13.622;2023-08-01T11:21:52;99069.53;;;18.05;100.00
78144;BME280;67394;52.522;13.622;2023-08-01T11:24:19;99080.53;;;18.24;100.00
78144;BME280;67394;52.522;13.622;2023-08-01T11:26:48;99077.16;;;18.38;100.00
78144;BME280;67394;52.522;13.622;2023-08-01T11:29:16;99074.72;;;18.35;100.00
78144;BME280;67394;52.522;13.622;2023-08-01T11:31:59;99077.44;;;18.47;100.00
78144;BME280;67394;52.522;13.622;2023-08-01T11:34:26;99088.31;;;18.54;100.00
78144;BME280;67394;52.522;13.622;2023-08-01T11:36:53;99096.41;;;18.34;100.00
78144;BME280;67394;52.522;13.622;2023-08-01T11:39:20;99091.41;;;18.31;100.00
78144;BME280;67394;52.522;13.622;2023-08-01T11:41:46;99096.50;;;18.32;100.00
78144;BME280;67394;52.522;13.622;2023-08-01T11:44:13;99101.78;;;18.31;100.00
78144;BME280;67394;52.522;13.622;2023-08-01T11:46:39;99099.00;;;18.34;100.00
78144;BME280;67394;52.522;13.622;2023-08-01T11:49:07;99102.34;;;18.36;100.00
78144;BME280;67394;52.522;13.622;2023-08-01T11:51:41;99103.78;;;18.41;100.00
78144;BME280;67394;52.522;13.622;2023-08-01T11:54:08;99110.50;;;18.44;100.00
78144;BME280;67394;52.522;13.622;2023-08-01T11:56:35;99111.69;;;18.54;100.00
78144;BME280;67394;52.522;13.622;2023-08-01T11:59:11;99103.19;;;18.66;100.00
78144;BME280;67394;52.522;13.622;2023-08-01T12:01:43;99094.84;;;18.61;99.94
78144;BME280;67394;52.522;13.622;2023-08-01T12:04:10;99090.63;;;18.74;98.94
78144;BME280;67394;52.522;13.622;2023-08-01T12:06:37;99104.53;;;18.73;100.00
78144;BME280;67394;52.522;13.622;2023-08-01T12:09:10;99112.31;;;18.87;98.19
78144;BME280;67394;52.522;13.622;2023-08-01T12:11:38;99119.38;;;18.85;96.78
78144;BME280;67394;52.522;13.622;2023-08-01T12:14:10;99118.63;;;18.97;95.14
78144;BME280;67394;52.522;13.622;2023-08-01T12:16:40;99107.91;;;19.04;93.43
78144;BME280;67394;52.522;13.622;2023-08-01T12:19:09;99108.81;;;19.02;94.00
78144;BME280;67394;52.522;13.622;2023-08-01T12:21:37;99109.38;;;19.08;96.24
78144;BME280;67394;52.522;13.622;2023-08-01T12:24:03;99119.50;;;19.26;94.76
78144;BME280;67394;52.522;13.622;2023-08-01T12:26:32;99113.44;;;19.40;92.50
78144;BME280;67394;52.522;13.622;2023-08-01T12:28:59;99114.06;;;19.72;92.26
78144;BME280;67394;52.522;13.622;2023-08-01T12:31:25;99130.31;;;19.90;89.84
78144;BME280;67394;52.522;13.622;2023-08-01T12:33:53;99119.31;;;19.58;88.49
78144;BME280;67394;52.522;13.622;2023-08-01T12:36:20;99113.91;;;19.47;90.62
78144;BME280;67394;52.522;13.622;2023-08-01T12:38:47;99113.66;;;19.23;87.16
78144;BME280;67394;52.522;13.622;2023-08-01T12:41:13;99116.72;;;19.58;90.04
78144;BME280;67394;52.522;13.622;2023-08-01T12:43:39;99125.06;;;19.63;90.51
78144;BME280;67394;52.522;13.622;2023-08-01T12:46:06;99120.53;;;19.52;88.15